createdAt,value
2022-08-19T00:02:14.208Z,95598.47
2022-08-19T00:09:18.475Z,95596.94
2022-08-19T00:16:26.509Z,95615.72
2022-08-19T00:23:29.286Z,95626.88
2022-08-19T00:30:31.623Z,95612.66
2022-08-19T00:37:36.217Z,95603.09
2022-08-19T00:44:39.183Z,95584.47
2022-08-19T00:51:41.409Z,95588.97
2022-08-19T00:58:45.125Z,95593.78
2022-08-19T01:05:47.543Z,95610.88
2022-08-19T01:12:49.979Z,95620.69
2022-08-19T01:19:53.730Z,95611.59
2022-08-19T01:26:57.535Z,95599.41
2022-08-19T01:34:00.386Z,95591.94
2022-08-19T01:41:02.765Z,95598.28
2022-08-19T01:48:14.774Z,95597.44
2022-08-19T01:55:18.044Z,95599.06
2022-08-19T02:02:20.367Z,95582.66
2022-08-19T02:09:24.289Z,95583.22
2022-08-19T02:16:26.562Z,95597.25
2022-08-19T02:23:28.967Z,95603.69
2022-08-19T02:30:32.743Z,95620.81
2022-08-19T02:37:54.014Z,95620.19
2022-08-19T02:44:56.627Z,95600.94
2022-08-19T02:52:00.290Z,95608.19
2022-08-19T02:59:02.795Z,95609.31
2022-08-19T03:06:07.563Z,95599.81
2022-08-19T03:13:14.108Z,95608.31
2022-08-19T03:20:16.718Z,95613.53
2022-08-19T03:27:19.125Z,95613.88
2022-08-19T03:34:27.126Z,95599.91
2022-08-19T03:41:34.391Z,95588.38
2022-08-19T03:48:47.833Z,95597.03
2022-08-19T03:55:51.656Z,95600.97
2022-08-19T04:02:53.964Z,95606.06
2022-08-19T04:10:01.398Z,95619.19
2022-08-19T04:17:07.966Z,95616.56
2022-08-19T04:24:12.327Z,95619.41
2022-08-19T04:31:15.134Z,95610.41
2022-08-19T04:38:19.839Z,95593.72
2022-08-19T04:45:22.979Z,95593.47
2022-08-19T04:52:25.633Z,95604.69
2022-08-19T04:59:29.268Z,95621.47
2022-08-19T05:06:34.312Z,95629.06
2022-08-19T05:13:36.555Z,95639.63
2022-08-19T05:20:58.622Z,95659.78
2022-08-19T05:28:00.848Z,95675.22
2022-08-19T05:35:03.548Z,95687.06
2022-08-19T05:42:08.842Z,95699.50
2022-08-19T05:49:11.264Z,95704.34
2022-08-19T05:56:15.676Z,95703.78
2022-08-19T06:03:19.227Z,95712.41
2022-08-19T06:10:22.646Z,95721.16
2022-08-19T06:17:26.512Z,95714.72
2022-08-19T06:24:34.692Z,95711.16
2022-08-19T06:31:41.974Z,95703.66
2022-08-19T06:38:44.443Z,95702.84
2022-08-19T06:45:49.507Z,95703.09
2022-08-19T06:52:51.859Z,95707.47
2022-08-19T06:59:57.304Z,95719.53
2022-08-19T07:07:19.762Z,95714.47
2022-08-19T07:14:26.092Z,95717.34
2022-08-19T07:21:31.513Z,95723.69
2022-08-19T07:28:46.045Z,95723.81
2022-08-19T07:35:56.328Z,95722.78
2022-08-19T07:42:58.590Z,95733.34
2022-08-19T07:50:02.174Z,95732.25
2022-08-19T07:57:04.820Z,95742.09
2022-08-19T08:04:25.728Z,95748.78
2022-08-19T08:11:31.671Z,95754.75
2022-08-19T08:18:34.150Z,95751.44
2022-08-19T08:25:36.746Z,95749.34
2022-08-19T08:32:40.452Z,95753.16
2022-08-19T08:39:45.970Z,95741.84
2022-08-19T08:46:52.883Z,95744.50
2022-08-19T08:53:57.009Z,95755.91
2022-08-19T09:00:59.383Z,95745.66
2022-08-19T09:08:03.594Z,95751.75
2022-08-19T09:15:09.485Z,95757.84
2022-08-19T09:22:11.924Z,95769.50
2022-08-19T09:29:14.141Z,95767.94
2022-08-19T09:36:23.499Z,95772.56
2022-08-19T09:43:44.507Z,95775.88
2022-08-19T09:50:52.387Z,95773.63
2022-08-19T09:57:58.533Z,95766.72
2022-08-19T10:05:26.612Z,95763.06
2022-08-19T10:12:29.277Z,95758.53
2022-08-19T10:19:37.015Z,95766.75
2022-08-19T10:26:42.507Z,95771.84
2022-08-19T10:33:53.936Z,95777.09
2022-08-19T10:40:58.146Z,95774.06
2022-08-19T10:48:00.375Z,95763.34
2022-08-19T10:55:21.270Z,95768.41
2022-08-19T11:02:27.019Z,95780.47
2022-08-19T11:09:34.069Z,95779.91
2022-08-19T11:16:37.208Z,95781.56
2022-08-19T11:23:40.903Z,95782.94
2022-08-19T11:30:45.539Z,95800.38
2022-08-19T11:37:47.790Z,95813.25
2022-08-19T11:44:51.426Z,95810.88
2022-08-19T11:51:54.493Z,95812.72
2022-08-19T11:58:57.757Z,95817.31
2022-08-19T12:06:03.790Z,95830.16
2022-08-19T12:13:06.382Z,95826.59
2022-08-19T12:20:10.393Z,95814.41
2022-08-19T12:27:14.305Z,95816.88
2022-08-19T12:34:34.874Z,95817.56
2022-08-19T12:41:37.619Z,95823.66
2022-08-19T12:48:56.192Z,95842.00
2022-08-19T12:55:58.709Z,95836.34
2022-08-19T13:03:01.300Z,95842.66
2022-08-19T13:10:06.365Z,95846.78
2022-08-19T13:17:09.247Z,95838.94
2022-08-19T13:24:11.515Z,95847.59
2022-08-19T13:31:35.567Z,95840.81
2022-08-19T13:38:40.184Z,95847.38
2022-08-19T13:45:42.517Z,95856.34
2022-08-19T13:52:46.115Z,95867.94
2022-08-19T13:59:48.332Z,95860.72
2022-08-19T14:06:50.653Z,95860.28
2022-08-19T14:13:54.569Z,95863.03
2022-08-19T14:20:57.639Z,95849.94
2022-08-19T14:28:01.299Z,95846.75
2022-08-19T14:35:05.523Z,95839.53
2022-08-19T14:42:11.235Z,95836.22
2022-08-19T14:49:13.827Z,95833.03
2022-08-19T14:56:18.491Z,95827.94
2022-08-19T15:03:20.703Z,95829.22
2022-08-19T15:10:24.319Z,95828.06
2022-08-19T15:17:43.739Z,95836.94
2022-08-19T15:24:48.366Z,95845.81
2022-08-19T15:31:51.720Z,95866.09
2022-08-19T15:38:55.492Z,95889.66
2022-08-19T15:45:57.718Z,95867.59
2022-08-19T15:53:03.152Z,95866.59
2022-08-19T16:00:26.842Z,95878.66
2022-08-19T16:07:29.333Z,95888.81
2022-08-19T16:14:32.686Z,95893.81
2022-08-19T16:21:37.268Z,95886.69
2022-08-19T16:28:40.244Z,95879.22
2022-08-19T16:35:42.812Z,95874.19
2022-08-19T16:42:46.521Z,95878.91
2022-08-19T16:49:54.472Z,95893.53
2022-08-19T16:56:57.570Z,95897.41
2022-08-19T17:04:01.144Z,95910.97
2022-08-19T17:11:17.719Z,95905.47
2022-08-19T17:18:23.190Z,95902.50
2022-08-19T17:25:30.400Z,95898.31
2022-08-19T17:32:34.772Z,95906.81
2022-08-19T17:39:40.009Z,95914.03
2022-08-19T17:46:46.540Z,95922.09
2022-08-19T17:53:48.965Z,95914.19
2022-08-19T18:00:54.073Z,95919.91
2022-08-19T18:08:01.382Z,95912.03
2022-08-19T18:15:04.545Z,95924.47
2022-08-19T18:22:06.777Z,95921.38
2022-08-19T18:29:10.477Z,95920.34
2022-08-19T18:36:13.457Z,95923.22
2022-08-19T18:43:27.616Z,95932.63
2022-08-19T18:50:31.202Z,95942.31
2022-08-19T18:57:33.835Z,95942.31
2022-08-19T19:04:37.902Z,95947.31
2022-08-19T19:11:45.707Z,95944.44
2022-08-19T19:18:52.242Z,95954.28
2022-08-19T19:25:54.584Z,95958.00
2022-08-19T19:33:00.228Z,95965.19
2022-08-19T19:40:04.337Z,95970.25
2022-08-19T19:47:09.641Z,95967.19
2022-08-19T19:54:17.861Z,95972.09
2022-08-19T20:01:24.880Z,95977.00
2022-08-19T20:08:47.414Z,95976.69
2022-08-19T20:15:51.071Z,95975.22
2022-08-19T20:22:53.856Z,95979.91
2022-08-19T20:29:57.225Z,95995.47
2022-08-19T20:37:00.789Z,96005.19
2022-08-19T20:44:04.616Z,96009.66
2022-08-19T20:51:06.848Z,96002.00
2022-08-19T20:58:11.969Z,96005.44
2022-08-19T21:05:14.743Z,96003.22
2022-08-19T21:12:17.728Z,95999.34
2022-08-19T21:19:24.136Z,96008.16
2022-08-19T21:26:26.664Z,96008.72
2022-08-19T21:33:32.236Z,96009.22
2022-08-19T21:40:36.321Z,96014.13
2022-08-19T21:47:38.584Z,96005.19
2022-08-19T21:54:42.853Z,96005.31
2022-08-19T22:01:51.508Z,96013.50
2022-08-19T22:08:58.529Z,96009.06
2022-08-19T22:16:00.861Z,96004.00
2022-08-19T22:23:05.887Z,96014.31
2022-08-19T22:30:10.086Z,95990.69
2022-08-19T22:37:14.579Z,95989.81
2022-08-19T22:44:18.145Z,96003.91
2022-08-19T22:51:40.009Z,95995.81
2022-08-19T22:58:42.405Z,95994.41
2022-08-19T23:05:47.122Z,96007.06
2022-08-19T23:12:54.400Z,95998.53
2022-08-19T23:19:56.714Z,95986.13
2022-08-19T23:27:18.879Z,95990.03
2022-08-19T23:34:21.232Z,95989.63
2022-08-19T23:41:23.548Z,95991.69
2022-08-19T23:48:28.426Z,96000.84
2022-08-19T23:55:32.544Z,95997.00
